Terminal Aerodrome Forecast
Issued by NWS Corpus Christi, TX

Home | Current Version | Previous Version | Text Only | Print | Product List | Glossary On
Versions: 1 2 3 4 5 6 7 8 9 10 11 12 13 14 15 16 17
000
FTUS44 KCRP 012300
TAFVCT
TAF
KVCT 012338Z 0200/0224 17010KT P6SM FEW025
     FM020500 16005KT 6SM BR BKN015
      TEMPO 0209/0213 SCT015
     FM021600 17014KT P6SM BKN035=

USA.gov is the U.S. government's official web portal to all federal, state and local government web resources and services.